Time;durP1;ratioP1;P1;durP2;ratioP2;P2;SDS_P1;SDS_P2;PMS_P1;PMS_P2;Temp;Humidity;BMP_temperature;BMP_pressure;BME280_temperature;BME280_humidity;BME280_pressure;Samples;Min_cycle;Max_cycle;Signal;HPM_P1;HPM_P2
2022/09/01 00:00:54;;;;;;;0.40;0.40;;;12.90;99.90;;;;;;5090226;28;20040;-80
2022/09/01 00:03:22;;;;;;;0.40;0.40;;;12.80;99.90;;;;;;5091514;28;20398;-81
2022/09/01 00:05:53;;;;;;;0.40;0.40;;;12.80;99.90;;;;;;5086267;28;20032;-82
2022/09/01 00:08:20;;;;;;;0.43;0.43;;;12.70;99.90;;;;;;5089410;28;20485;-79
2022/09/01 00:10:46;;;;;;;0.60;0.60;;;12.60;99.90;;;;;;5087872;28;20073;-81
2022/09/01 00:13:12;;;;;;;0.45;0.45;;;12.60;99.90;;;;;;5065686;28;20040;-81
2022/09/01 00:15:37;;;;;;;0.40;0.40;;;12.50;99.90;;;;;;5083867;28;20523;-81
2022/09/01 00:18:03;;;;;;;0.30;0.30;;;12.50;99.90;;;;;;5094773;28;20366;-79
2022/09/01 00:20:29;;;;;;;0.40;0.40;;;12.50;99.90;;;;;;5080910;28;20032;-81
2022/09/01 00:22:55;;;;;;;0.40;0.40;;;12.40;99.90;;;;;;5085190;28;20052;-78
2022/09/01 00:25:22;;;;;;;0.30;0.30;;;12.30;99.90;;;;;;5088291;28;20050;-81
2022/09/01 00:27:48;;;;;;;0.25;0.25;;;12.30;99.90;;;;;;5085824;28;20040;-79
2022/09/01 00:30:14;;;;;;;0.40;0.40;;;12.20;99.90;;;;;;5088753;28;20096;-80
2022/09/01 00:32:45;;;;;;;0.38;0.38;;;12.20;99.90;;;;;;5077006;28;20090;-79
2022/09/01 00:35:15;;;;;;;0.40;0.40;;;12.20;99.90;;;;;;5087060;28;20102;-81
2022/09/01 00:37:41;;;;;;;0.40;0.40;;;12.10;99.90;;;;;;5086366;28;20488;-81
2022/09/01 00:40:08;;;;;;;;;;;12.10;99.90;;;;;;5096904;28;20477;-80
2022/09/01 00:42:33;;;;;;;0.37;0.37;;;12.00;99.90;;;;;;5093789;28;19920;-80
2022/09/01 00:44:59;;;;;;;0.45;0.45;;;12.10;99.90;;;;;;5084548;28;20310;-80
2022/09/01 00:47:25;;;;;;;0.50;0.50;;;12.10;99.90;;;;;;5080134;28;20405;-81
2022/09/01 00:49:52;;;;;;;0.50;0.50;;;12.00;99.90;;;;;;5092649;28;20480;-81
2022/09/01 00:52:34;;;;;;;0.45;0.45;;;12.10;99.90;;;;;;5094469;28;20490;-81
2022/09/01 00:55:08;;;;;;;0.40;0.40;;;12.00;99.90;;;;;;5088683;28;20047;-81
2022/09/01 00:57:34;;;;;;;0.30;0.30;;;12.10;99.90;;;;;;5071281;28;20044;-78
2022/09/01 01:00:10;;;;;;;0.40;0.40;;;12.10;99.90;;;;;;5087487;28;20450;-80
2022/09/01 01:02:43;;;;;;;0.40;0.40;;;12.10;99.90;;;;;;5083815;28;20101;-78
2022/09/01 01:05:10;;;;;;;0.40;0.40;;;12.10;99.90;;;;;;5089145;28;20474;-80
2022/09/01 01:07:42;;;;;;;0.50;0.50;;;12.10;99.90;;;;;;5086983;28;20071;-83
2022/09/01 01:10:10;;;;;;;0.40;0.40;;;12.20;99.90;;;;;;5081964;28;20041;-78
2022/09/01 01:12:39;;;;;;;0.30;0.30;;;12.20;99.90;;;;;;5085545;28;20048;-79
2022/09/01 01:15:07;;;;;;;0.40;0.40;;;12.20;99.90;;;;;;5077927;28;20040;-78
2022/09/01 01:17:33;;;;;;;0.40;0.40;;;12.30;99.90;;;;;;5060667;28;20051;-81
2022/09/01 01:23:01;;;;;;;0.40;0.40;;;12.30;99.90;;;;;;5081200;28;20055;-81
2022/09/01 01:25:49;;;;;;;0.40;0.40;;;12.40;99.90;;;;;;5076698;28;20041;-80
2022/09/01 01:28:24;;;;;;;0.50;0.50;;;12.40;99.90;;;;;;5087029;28;20048;-79
2022/09/01 01:31:00;;;;;;;0.30;0.30;;;12.50;99.90;;;;;;5088176;28;20056;-79
2022/09/01 01:33:40;;;;;;;0.30;0.30;;;12.50;99.90;;;;;;5073870;28;20438;-80
2022/09/01 01:36:09;;;;;;;0.30;0.30;;;12.60;99.90;;;;;;5093414;28;20073;-81
2022/09/01 01:38:35;;;;;;;0.40;0.40;;;12.60;99.90;;;;;;5084731;28;20045;-79
2022/09/01 01:41:02;;;;;;;0.43;0.43;;;12.60;99.90;;;;;;5071741;28;20040;-81
2022/09/01 01:43:28;;;;;;;0.40;0.40;;;12.60;99.90;;;;;;5105169;28;20091;-79
2022/09/01 01:46:01;;;;;;;0.35;0.35;;;12.60;99.90;;;;;;5104178;28;20033;-80
2022/09/01 01:48:28;;;;;;;0.40;0.40;;;12.60;99.90;;;;;;5103383;28;20051;-79
2022/09/01 01:50:58;;;;;;;0.40;0.40;;;12.70;99.90;;;;;;5087957;28;20128;-79
2022/09/01 01:53:24;;;;;;;0.40;0.40;;;12.70;99.90;;;;;;5093057;28;20044;-78
2022/09/01 01:55:51;;;;;;;0.32;0.32;;;12.70;99.90;;;;;;5079959;28;20136;-79
2022/09/01 01:58:18;;;;;;;0.40;0.40;;;12.80;99.90;;;;;;5088070;28;20394;-79
2022/09/01 02:00:46;;;;;;;0.40;0.40;;;12.80;99.90;;;;;;5092809;28;20044;-79
2022/09/01 02:03:17;;;;;;;0.47;0.47;;;12.80;99.90;;;;;;5091900;28;20044;-80
2022/09/01 02:05:45;;;;;;;0.40;0.40;;;12.80;99.90;;;;;;5070740;28;20176;-80
2022/09/01 02:08:14;;;;;;;0.35;0.35;;;12.90;99.90;;;;;;5092581;28;20396;-80
2022/09/01 02:10:43;;;;;;;0.30;0.30;;;12.90;99.90;;;;;;5095387;28;20451;-81
2022/09/01 02:13:15;;;;;;;0.40;0.40;;;12.90;99.90;;;;;;5074350;28;20051;-79
2022/09/01 02:15:52;;;;;;;0.30;0.30;;;12.90;99.90;;;;;;5088035;28;20059;-80
2022/09/01 02:18:22;;;;;;;0.30;0.30;;;12.90;99.90;;;;;;5087233;28;20366;-84
2022/09/01 02:20:49;;;;;;;0.30;0.30;;;12.90;99.90;;;;;;5087598;28;20040;-79
2022/09/01 02:23:22;;;;;;;0.40;0.40;;;12.90;99.90;;;;;;5077689;28;20051;-79
2022/09/01 02:25:50;;;;;;;0.45;0.45;;;12.90;99.90;;;;;;5090260;28;20041;-81
2022/09/01 02:28:18;;;;;;;0.40;0.40;;;12.90;99.90;;;;;;5084759;28;20177;-80
2022/09/01 02:30:49;;;;;;;0.43;0.43;;;12.90;99.90;;;;;;5102735;28;20066;-81
2022/09/01 02:33:19;;;;;;;0.30;0.30;;;12.90;99.90;;;;;;5087420;28;20043;-84
2022/09/01 02:35:46;;;;;;;0.32;0.32;;;12.90;99.90;;;;;;5074777;28;20048;-83
2022/09/01 02:38:13;;;;;;;0.40;0.40;;;12.80;99.90;;;;;;5092433;28;20036;-82
2022/09/01 02:40:43;;;;;;;0.40;0.40;;;12.80;99.90;;;;;;5093811;28;20409;-82
2022/09/01 02:43:10;;;;;;;0.20;0.20;;;12.80;99.90;;;;;;5092288;28;20512;-81
2022/09/01 02:45:37;;;;;;;0.50;0.50;;;12.70;99.90;;;;;;5081883;28;20044;-81
2022/09/01 02:48:08;;;;;;;0.30;0.30;;;12.70;99.90;;;;;;5075652;28;20474;-80
2022/09/01 02:50:35;;;;;;;0.32;0.32;;;12.60;99.90;;;;;;5096935;28;20052;-80
2022/09/01 02:53:01;;;;;;;0.40;0.40;;;12.50;99.90;;;;;;5097617;28;20151;-81
2022/09/01 02:55:26;;;;;;;0.30;0.30;;;12.50;99.90;;;;;;5097452;28;20131;-80
2022/09/01 02:57:55;;;;;;;0.45;0.45;;;12.50;99.90;;;;;;5089342;28;20047;-80
2022/09/01 03:00:27;;;;;;;0.40;0.40;;;12.40;99.90;;;;;;5082010;28;20040;-80
2022/09/01 03:02:56;;;;;;;0.30;0.30;;;12.30;99.90;;;;;;5087521;28;20072;-81
2022/09/01 03:05:25;;;;;;;0.40;0.40;;;12.30;99.90;;;;;;5074059;28;20065;-83
2022/09/01 03:07:58;;;;;;;0.63;0.63;;;12.20;99.90;;;;;;5076318;28;20079;-82
2022/09/01 03:10:31;;;;;;;0.40;0.40;;;12.10;99.90;;;;;;5084490;28;20448;-81
2022/09/01 03:13:05;;;;;;;0.40;0.40;;;12.10;99.90;;;;;;5086232;28;20032;-80
2022/09/01 03:15:32;;;;;;;0.38;0.38;;;12.00;99.90;;;;;;5084983;28;20050;-81
2022/09/01 03:17:59;;;;;;;0.20;0.20;;;12.00;99.90;;;;;;5091198;28;20133;-81
2022/09/01 03:20:26;;;;;;;0.40;0.40;;;11.90;99.90;;;;;;5093411;28;20067;-81
2022/09/01 03:22:53;;;;;;;0.40;0.40;;;11.90;99.90;;;;;;5084066;28;20052;-81
2022/09/01 03:25:19;;;;;;;0.40;0.40;;;11.90;99.90;;;;;;5066891;28;20467;-79
2022/09/01 03:27:46;;;;;;;0.50;0.50;;;11.90;99.90;;;;;;5085656;28;20044;-81
2022/09/01 03:30:13;;;;;;;0.20;0.20;;;11.80;99.90;;;;;;5070252;28;20055;-82
2022/09/01 03:32:39;;;;;;;0.47;0.47;;;11.80;99.90;;;;;;5092262;28;20044;-82
2022/09/01 03:35:05;;;;;;;0.30;0.30;;;11.70;99.90;;;;;;5094530;28;20040;-82
2022/09/01 03:37:32;;;;;;;0.30;0.30;;;11.80;99.90;;;;;;5065754;28;20033;-82
2022/09/01 03:39:58;;;;;;;0.40;0.40;;;11.80;99.90;;;;;;5085655;28;20054;-81
2022/09/01 03:42:28;;;;;;;0.40;0.40;;;11.70;99.90;;;;;;5086856;28;21288;-82
2022/09/01 03:44:55;;;;;;;0.40;0.40;;;11.70;99.90;;;;;;5078978;28;20580;-81
2022/09/01 03:47:21;;;;;;;0.50;0.50;;;11.70;99.90;;;;;;5088116;28;20052;-81
2022/09/01 03:49:48;;;;;;;;;;;11.70;99.90;;;;;;5056393;28;20036;-81
2022/09/01 03:52:16;;;;;;;0.38;0.38;;;11.60;99.90;;;;;;5071297;28;19924;-81
2022/09/01 03:54:42;;;;;;;0.30;0.30;;;11.60;99.90;;;;;;5089362;28;20044;-80
2022/09/01 03:57:09;;;;;;;0.52;0.52;;;11.60;99.90;;;;;;5060828;28;20075;-81
2022/09/01 03:59:37;;;;;;;0.30;0.30;;;11.60;99.90;;;;;;5082188;28;20079;-81
2022/09/01 04:02:03;;;;;;;0.40;0.40;;;11.50;99.90;;;;;;5086810;28;20078;-79
2022/09/01 04:04:32;;;;;;;0.50;0.50;;;11.50;99.90;;;;;;5080320;28;20081;-81
2022/09/01 04:07:01;;;;;;;0.43;0.43;;;11.50;99.90;;;;;;5083746;28;20101;-80
2022/09/01 04:09:26;;;;;;;0.40;0.40;;;11.50;99.90;;;;;;5084309;28;20415;-80
2022/09/01 04:11:52;;;;;;;0.45;0.45;;;11.40;99.90;;;;;;5082197;28;20546;-81
2022/09/01 04:14:18;;;;;;;;;;;11.30;99.90;;;;;;5082086;28;20485;-81
2022/09/01 04:19:35;;;;;;;0.50;0.50;;;11.20;99.90;;;;;;5075675;28;20063;-80
2022/09/01 04:22:02;;;;;;;0.47;0.47;;;11.20;99.90;;;;;;5077753;28;20128;-80
2022/09/01 04:24:30;;;;;;;0.50;0.50;;;11.10;99.90;;;;;;5077674;28;20102;-81
2022/09/01 04:27:00;;;;;;;0.45;0.45;;;11.10;99.90;;;;;;5077819;28;20131;-81
2022/09/01 04:29:27;;;;;;;0.40;0.40;;;11.00;99.90;;;;;;5080434;28;20044;-81
2022/09/01 04:32:08;;;;;;;0.40;0.40;;;11.00;99.90;;;;;;5095063;28;20139;-82
2022/09/01 04:34:37;;;;;;;0.50;0.50;;;11.00;99.90;;;;;;5065148;28;20040;-81
2022/09/01 04:37:11;;;;;;;0.65;0.65;;;10.90;99.90;;;;;;5092552;28;20116;-80
2022/09/01 04:39:38;;;;;;;0.75;0.75;;;10.90;99.90;;;;;;5083126;28;20504;-80
2022/09/01 04:42:07;;;;;;;;;;;10.90;99.90;;;;;;5070666;28;20046;-79
2022/09/01 04:44:34;;;;;;;0.60;0.60;;;11.00;99.90;;;;;;5075745;28;19961;-79
2022/09/01 04:47:00;;;;;;;0.40;0.40;;;10.90;99.90;;;;;;5088924;28;20064;-79
2022/09/01 04:49:27;;;;;;;0.40;0.40;;;11.00;99.90;;;;;;5092850;28;20031;-78
2022/09/01 04:51:52;;;;;;;0.43;0.43;;;11.00;99.90;;;;;;5092013;28;20135;-79
2022/09/01 04:54:19;;;;;;;0.50;0.50;;;11.00;99.90;;;;;;5069374;28;20148;-79
2022/09/01 04:56:51;;;;;;;0.50;0.50;;;11.00;99.90;;;;;;5083720;28;20055;-78
2022/09/01 04:59:20;;;;;;;0.50;0.50;;;11.10;99.90;;;;;;5068936;28;20504;-78
2022/09/01 05:01:48;;;;;;;0.38;0.38;;;11.10;99.90;;;;;;5084566;28;20036;-78
2022/09/01 05:04:26;;;;;;;0.40;0.40;;;11.10;99.90;;;;;;5091562;28;20356;-79
2022/09/01 05:06:56;;;;;;;0.43;0.43;;;11.20;99.90;;;;;;5069401;28;20158;-81
2022/09/01 05:09:24;;;;;;;0.40;0.40;;;11.20;99.90;;;;;;5092386;28;20096;-78
2022/09/01 05:11:50;;;;;;;0.40;0.40;;;11.30;99.90;;;;;;5072188;28;20044;-78
2022/09/01 05:14:19;;;;;;;0.45;0.45;;;11.40;99.90;;;;;;5068954;28;20452;-78
2022/09/01 05:16:46;;;;;;;0.40;0.40;;;11.40;99.90;;;;;;5067857;28;20466;-81
2022/09/01 05:19:16;;;;;;;0.50;0.50;;;11.40;99.90;;;;;;5072707;28;20067;-79
2022/09/01 05:21:46;;;;;;;0.30;0.30;;;11.40;99.90;;;;;;5085760;28;20119;-80
2022/09/01 05:24:18;;;;;;;0.32;0.32;;;11.50;99.90;;;;;;5083276;28;20168;-79
2022/09/01 05:26:46;;;;;;;0.30;0.30;;;11.60;99.90;;;;;;5083482;28;20623;-78
2022/09/01 05:29:15;;;;;;;0.40;0.40;;;11.70;99.90;;;;;;5078612;28;20103;-78
2022/09/01 05:31:44;;;;;;;0.38;0.38;;;11.80;99.90;;;;;;5086133;28;20044;-79
2022/09/01 05:34:10;;;;;;;0.45;0.45;;;11.90;99.90;;;;;;5066153;28;20397;-81
2022/09/01 05:36:39;;;;;;;0.50;0.50;;;12.00;99.90;;;;;;5078848;28;20076;-79
2022/09/01 05:39:06;;;;;;;0.45;0.45;;;12.10;99.90;;;;;;5066271;28;20048;-80
2022/09/01 05:41:34;;;;;;;0.32;0.32;;;12.10;99.90;;;;;;5086565;28;20055;-81
2022/09/01 05:44:03;;;;;;;0.50;0.50;;;12.20;99.90;;;;;;5086090;28;20091;-80
2022/09/01 05:46:28;;;;;;;0.40;0.40;;;12.30;99.90;;;;;;5089504;28;20048;-80
2022/09/01 05:48:54;;;;;;;0.40;0.40;;;12.30;99.90;;;;;;5087286;28;20434;-81
2022/09/01 05:51:22;;;;;;;;;;;12.40;99.90;;;;;;5075980;28;20048;-80
2022/09/01 05:53:51;;;;;;;;;;;12.40;99.90;;;;;;5061763;28;20296;-81
2022/09/01 05:56:18;;;;;;;0.40;0.40;;;12.50;99.90;;;;;;5086684;28;19961;-81
2022/09/01 05:58:47;;;;;;;0.40;0.40;;;12.60;99.90;;;;;;5085489;28;20064;-81
2022/09/01 06:01:20;;;;;;;0.47;0.47;;;12.60;99.90;;;;;;5082063;28;20040;-81
2022/09/01 06:03:48;;;;;;;0.40;0.40;;;12.70;99.90;;;;;;5082436;28;20045;-81
2022/09/01 06:06:15;;;;;;;0.40;0.40;;;12.80;99.90;;;;;;5078417;28;20421;-80
2022/09/01 06:08:41;;;;;;;0.38;0.38;;;12.90;99.90;;;;;;5082415;28;20048;-81
2022/09/01 06:11:12;;;;;;;0.30;0.30;;;13.10;99.90;;;;;;5084983;28;20032;-81
2022/09/01 06:13:41;;;;;;;0.32;0.32;;;13.20;99.90;;;;;;5064842;28;20037;-80
2022/09/01 06:16:11;;;;;;;0.40;0.40;;;13.40;99.90;;;;;;5077747;28;20044;-80
2022/09/01 06:18:37;;;;;;;0.30;0.30;;;13.60;99.90;;;;;;5076279;28;20040;-80
2022/09/01 06:21:07;;;;;;;0.40;0.40;;;13.80;99.90;;;;;;5093639;28;20134;-79
2022/09/01 06:23:34;;;;;;;0.40;0.40;;;13.90;99.90;;;;;;5078135;28;20159;-80
2022/09/01 06:26:02;;;;;;;0.40;0.40;;;14.10;99.90;;;;;;5087320;28;20044;-81
2022/09/01 06:28:28;;;;;;;0.30;0.30;;;14.20;99.90;;;;;;5088086;28;20537;-81
2022/09/01 06:30:56;;;;;;;0.40;0.40;;;14.20;99.90;;;;;;5094331;28;20052;-80
2022/09/01 06:33:23;;;;;;;0.32;0.32;;;14.20;99.90;;;;;;5098202;28;20052;-81
2022/09/01 06:35:51;;;;;;;0.35;0.35;;;14.10;99.90;;;;;;5091068;28;20032;-80
2022/09/01 06:38:18;;;;;;;0.30;0.30;;;14.10;99.90;;;;;;5098764;28;20044;-81
2022/09/01 06:40:45;;;;;;;0.30;0.30;;;14.20;99.90;;;;;;5081278;28;20051;-80
2022/09/01 06:43:12;;;;;;;0.32;0.32;;;14.20;99.90;;;;;;5092218;28;20063;-81
2022/09/01 06:45:53;;;;;;;0.50;0.50;;;14.20;99.90;;;;;;5106628;28;20051;-80
2022/09/01 06:48:21;;;;;;;0.35;0.35;;;14.20;99.90;;;;;;5099351;28;20381;-81
2022/09/01 06:50:46;;;;;;;0.30;0.30;;;14.30;99.90;;;;;;5091932;28;20428;-80
2022/09/01 06:53:17;;;;;;;0.32;0.32;;;14.60;99.90;;;;;;5101817;28;20052;-79
2022/09/01 06:55:47;;;;;;;0.22;0.22;;;14.90;99.90;;;;;;5053180;28;20037;-80
2022/09/01 06:58:14;;;;;;;0.30;0.30;;;15.30;99.90;;;;;;5075343;28;20051;-81
2022/09/01 07:00:41;;;;;;;0.20;0.20;;;15.60;99.90;;;;;;5085333;28;20036;-80
2022/09/01 07:03:09;;;;;;;0.20;0.20;;;15.80;99.90;;;;;;5076502;28;20036;-80
2022/09/01 07:05:40;;;;;;;0.30;0.30;;;15.90;99.90;;;;;;5088427;28;20386;-80
2022/09/01 07:08:09;;;;;;;0.32;0.32;;;15.90;99.90;;;;;;5069429;28;20055;-80
2022/09/01 07:10:44;;;;;;;0.32;0.32;;;15.90;99.90;;;;;;5085461;28;20040;-81
2022/09/01 07:13:19;;;;;;;0.30;0.30;;;15.80;99.90;;;;;;5082787;28;20048;-80
2022/09/01 07:15:48;;;;;;;0.25;0.25;;;15.70;99.90;;;;;;5088814;28;20044;-81
2022/09/01 07:18:21;;;;;;;0.30;0.30;;;15.70;99.90;;;;;;5085945;28;20033;-80
2022/09/01 07:20:47;;;;;;;0.30;0.30;;;15.70;99.90;;;;;;5084396;28;20409;-80
2022/09/01 07:23:18;;;;;;;0.30;0.30;;;15.80;99.90;;;;;;5078399;28;20480;-81
2022/09/01 07:25:47;;;;;;;0.40;0.40;;;15.90;99.90;;;;;;5080497;28;20211;-80
2022/09/01 07:28:15;;;;;;;0.28;0.28;;;16.00;99.90;;;;;;5088498;28;20409;-80
2022/09/01 07:30:49;;;;;;;0.38;0.38;;;16.30;99.90;;;;;;5063586;28;20105;-80
2022/09/01 07:33:19;;;;;;;0.30;0.30;;;16.50;99.90;;;;;;5091092;28;20056;-81
2022/09/01 07:35:46;;;;;;;0.30;0.30;;;16.80;99.90;;;;;;5085730;28;20032;-80
2022/09/01 07:38:12;;;;;;;0.30;0.30;;;17.00;99.90;;;;;;5087559;28;20048;-80
2022/09/01 07:40:40;;;;;;;0.20;0.20;;;17.20;99.90;;;;;;5067772;28;20040;-80
2022/09/01 07:43:13;;;;;;;0.28;0.28;;;17.40;99.90;;;;;;5109448;28;20475;-81
2022/09/01 07:45:46;;;;;;;0.20;0.20;;;17.50;99.90;;;;;;5089751;28;20425;-81
2022/09/01 07:48:13;;;;;;;0.52;0.52;;;17.60;99.90;;;;;;5093753;28;20047;-79
2022/09/01 07:50:46;;;;;;;0.30;0.30;;;17.80;99.90;;;;;;5089125;28;20111;-81
2022/09/01 07:53:41;;;;;;;0.20;0.20;;;17.90;99.90;;;;;;5092066;28;20109;-82
2022/09/01 07:56:09;;;;;;;0.20;0.20;;;18.10;99.90;;;;;;5089133;28;20051;-81
2022/09/01 07:58:37;;;;;;;0.20;0.20;;;18.30;99.90;;;;;;5095959;28;20036;-80
2022/09/01 08:01:08;;;;;;;0.20;0.20;;;18.40;99.90;;;;;;5085899;28;20492;-82
2022/09/01 08:03:35;;;;;;;0.20;0.20;;;18.50;99.90;;;;;;5100097;28;20048;-81
2022/09/01 08:06:09;;;;;;;0.20;0.20;;;18.70;99.90;;;;;;5092638;28;20104;-82
2022/09/01 08:08:37;;;;;;;0.28;0.28;;;18.90;99.90;;;;;;5088850;28;20048;-80
2022/09/01 08:11:03;;;;;;;0.20;0.20;;;18.90;99.90;;;;;;5064163;28;20096;-81
2022/09/01 08:13:29;;;;;;;;;;;18.90;99.90;;;;;;5094622;28;20404;-81
2022/09/01 08:15:54;;;;;;;0.20;0.20;;;18.80;99.90;;;;;;5107998;28;19916;-79
2022/09/01 08:18:20;;;;;;;;;;;18.70;99.90;;;;;;5105864;28;20068;-81
2022/09/01 08:20:46;;;;;;;1.25;1.23;;;18.60;99.90;;;;;;5094137;28;19916;-80
2022/09/01 08:23:17;;;;;;;0.30;0.30;;;18.50;99.90;;;;;;5077279;28;20050;-80
2022/09/01 08:25:44;;;;;;;0.10;0.10;;;18.50;99.90;;;;;;5086845;28;20173;-80
2022/09/01 08:28:12;;;;;;;0.20;0.20;;;18.40;99.90;;;;;;5088220;28;20056;-83
2022/09/01 08:30:40;;;;;;;0.25;0.25;;;18.50;99.90;;;;;;5086962;28;20071;-81
2022/09/01 08:33:06;;;;;;;0.25;0.25;;;18.60;99.90;;;;;;5095545;28;20080;-80
2022/09/01 08:35:32;;;;;;;0.20;0.20;;;18.80;99.90;;;;;;5087531;28;20097;-80
2022/09/01 08:37:58;;;;;;;;;;;18.90;99.90;;;;;;5091817;28;20040;-81
2022/09/01 08:40:25;;;;;;;1.30;0.22;;;19.00;99.90;;;;;;5098901;28;19916;-82
2022/09/01 08:43:02;;;;;;;0.17;0.17;;;19.10;99.90;;;;;;5088454;28;20044;-82
2022/09/01 08:45:32;;;;;;;0.20;0.20;;;19.20;99.90;;;;;;5090569;28;20123;-80
2022/09/01 08:48:31;;;;;;;0.20;0.20;;;19.40;99.90;;;;;;5082528;28;20040;-80
2022/09/01 08:51:24;;;;;;;0.28;0.25;;;19.60;99.90;;;;;;5080337;28;20048;-81
2022/09/01 08:54:00;;;;;;;0.30;0.30;;;19.90;99.90;;;;;;5087214;28;20071;-80
2022/09/01 08:56:26;;;;;;;;;;;20.00;99.90;;;;;;5093250;28;20044;-81
2022/09/01 08:58:51;;;;;;;0.30;0.30;;;20.10;99.90;;;;;;5091745;28;19939;-81
2022/09/01 09:01:26;;;;;;;;;;;20.20;99.90;;;;;;5089898;28;20073;-81
2022/09/01 09:03:55;;;;;;;0.20;0.20;;;20.30;99.90;;;;;;5089287;28;19916;-80
2022/09/01 09:06:54;;;;;;;0.20;0.20;;;20.50;99.90;;;;;;5086349;28;20127;-81
2022/09/01 09:09:20;;;;;;;0.20;0.20;;;20.40;99.90;;;;;;5059873;28;20478;-80
2022/09/01 09:11:57;;;;;;;0.30;0.30;;;20.40;99.90;;;;;;5084513;28;20036;-81
2022/09/01 09:14:51;;;;;;;0.10;0.10;;;20.30;99.90;;;;;;5077341;28;20049;-81
2022/09/01 09:17:24;;;;;;;0.20;0.20;;;20.20;99.90;;;;;;5070383;28;20039;-80
2022/09/01 09:19:50;;;;;;;0.20;0.20;;;20.20;99.90;;;;;;5075039;28;20073;-81
2022/09/01 09:22:19;;;;;;;0.20;0.20;;;20.20;99.90;;;;;;5074715;28;20044;-82
2022/09/01 09:24:54;;;;;;;0.20;0.20;;;20.20;99.90;;;;;;5067397;28;20044;-81
2022/09/01 09:27:37;;;;;;;0.20;0.20;;;20.20;99.90;;;;;;5065904;28;20180;-81
2022/09/01 09:30:12;;;;;;;0.20;0.20;;;20.20;99.90;;;;;;5072907;28;20475;-81
2022/09/01 09:32:49;;;;;;;0.25;0.25;;;20.30;99.90;;;;;;5087743;28;20045;-81
2022/09/01 09:35:20;;;;;;;0.20;0.20;;;20.40;99.90;;;;;;5086230;28;20044;-80
2022/09/01 09:37:46;;;;;;;0.20;0.20;;;20.50;99.90;;;;;;5069352;28;20427;-80
2022/09/01 09:40:24;;;;;;;0.20;0.20;;;20.50;99.90;;;;;;5063844;28;20044;-81
2022/09/01 09:42:53;;;;;;;0.20;0.20;;;20.60;99.90;;;;;;5079169;28;20366;-80
2022/09/01 09:45:25;;;;;;;0.10;0.10;;;20.80;99.90;;;;;;5077497;28;20044;-80
2022/09/01 09:47:54;;;;;;;0.28;0.28;;;20.80;99.90;;;;;;5088914;28;20541;-81
2022/09/01 09:50:26;;;;;;;0.20;0.20;;;20.90;99.90;;;;;;5085911;28;20175;-80
2022/09/01 09:53:09;;;;;;;0.20;0.20;;;21.00;99.90;;;;;;5089667;28;20478;-81
2022/09/01 09:55:35;;;;;;;0.15;0.15;;;21.10;99.90;;;;;;5087337;28;20086;-80
2022/09/01 09:58:09;;;;;;;0.20;0.20;;;21.20;99.90;;;;;;5089593;28;20080;-80
2022/09/01 10:00:35;;;;;;;0.30;0.30;;;21.20;99.90;;;;;;5086833;28;20051;-80
2022/09/01 10:03:07;;;;;;;0.28;0.28;;;21.30;99.90;;;;;;5092353;28;20052;-80
2022/09/01 10:05:44;;;;;;;0.30;0.30;;;21.30;99.90;;;;;;5083964;28;20312;-80
2022/09/01 10:08:43;;;;;;;0.20;0.20;;;21.30;99.90;;;;;;5099442;28;20039;-80
2022/09/01 10:11:23;;;;;;;0.65;0.65;;;21.40;99.90;;;;;;5089546;28;20074;-81
2022/09/01 10:13:48;;;;;;;0.20;0.20;;;21.50;99.90;;;;;;5074150;28;20056;-81
2022/09/01 10:16:23;;;;;;;0.30;0.30;;;21.50;99.90;;;;;;5073250;28;20040;-81
2022/09/01 10:18:51;;;;;;;0.30;0.30;;;21.50;99.90;;;;;;5083838;28;20093;-80
2022/09/01 10:21:38;;;;;;;0.20;0.20;;;21.50;99.90;;;;;;5058992;28;20032;-81
2022/09/01 10:24:29;;;;;;;0.28;0.28;;;21.60;99.90;;;;;;5096007;28;20126;-81
2022/09/01 10:27:01;;;;;;;0.32;0.32;;;21.70;99.90;;;;;;5086356;28;20079;-81
2022/09/01 10:29:37;;;;;;;0.20;0.20;;;21.80;99.90;;;;;;5088912;28;20064;-80
2022/09/01 10:32:09;;;;;;;0.20;0.20;;;21.90;99.90;;;;;;5091133;28;20048;-81
2022/09/01 10:34:37;;;;;;;0.20;0.20;;;22.00;99.90;;;;;;5083737;28;20032;-80
2022/09/01 10:37:05;;;;;;;0.30;0.30;;;22.10;99.90;;;;;;5071970;28;20400;-81
2022/09/01 10:39:31;;;;;;;0.20;0.20;;;22.30;99.90;;;;;;5080132;28;20044;-81
2022/09/01 10:42:06;;;;;;;0.20;0.20;;;22.50;99.90;;;;;;5085520;28;20036;-81
2022/09/01 10:44:37;;;;;;;0.22;0.22;;;22.60;99.90;;;;;;5066467;28;20040;-82
2022/09/01 10:47:11;;;;;;;0.20;0.20;;;22.70;99.90;;;;;;5083388;28;20048;-81
2022/09/01 10:49:36;;;;;;;0.20;0.20;;;22.50;99.90;;;;;;5074955;28;20036;-80
2022/09/01 10:52:02;;;;;;;0.25;0.25;;;22.30;99.90;;;;;;5084181;28;20033;-80
2022/09/01 10:54:40;;;;;;;0.20;0.20;;;22.40;98.50;;;;;;5078776;28;20040;-79
2022/09/01 10:57:49;;;;;;;0.20;0.20;;;22.60;98.30;;;;;;5086529;28;20040;-80
2022/09/01 11:00:18;;;;;;;0.25;0.25;;;22.90;99.90;;;;;;5071594;28;20404;-81
2022/09/01 11:03:24;;;;;;;0.20;0.20;;;23.10;92.90;;;;;;5081023;28;20392;-79
2022/09/01 11:06:03;;;;;;;0.20;0.20;;;23.00;96.50;;;;;;5063163;28;20401;-81
2022/09/01 11:08:29;;;;;;;0.20;0.20;;;22.90;98.00;;;;;;5074016;28;20516;-80
2022/09/01 11:11:26;;;;;;;0.20;0.20;;;22.90;91.90;;;;;;5088992;28;20040;-81
2022/09/01 11:13:55;;;;;;;0.20;0.20;;;22.90;90.00;;;;;;5082980;28;20032;-81
2022/09/01 11:16:38;;;;;;;0.20;0.20;;;23.10;88.30;;;;;;5084879;28;20047;-81
2022/09/01 11:19:22;;;;;;;0.30;0.30;;;23.20;92.80;;;;;;5089578;28;20190;-80
2022/09/01 11:22:17;;;;;;;0.20;0.20;;;23.10;93.90;;;;;;5092094;28;20378;-81
2022/09/01 11:24:46;;;;;;;0.20;0.20;;;23.00;93.70;;;;;;5067272;28;20066;-81
2022/09/01 11:27:46;;;;;;;0.25;0.25;;;23.00;92.20;;;;;;5084386;28;20574;-81
2022/09/01 11:30:17;;;;;;;0.52;0.35;;;23.00;81.70;;;;;;5088478;28;20049;-81
2022/09/01 11:32:47;;;;;;;0.52;0.30;;;22.90;93.00;;;;;;5073369;28;20455;-82
2022/09/01 11:35:21;;;;;;;0.20;0.20;;;22.90;90.20;;;;;;5086908;28;20048;-81
2022/09/01 11:37:55;;;;;;;0.10;0.10;;;22.90;90.60;;;;;;5099185;28;20047;-81
2022/09/01 11:40:28;;;;;;;0.20;0.20;;;22.90;85.60;;;;;;5091261;28;20048;-82
2022/09/01 11:42:56;;;;;;;0.15;0.15;;;23.10;83.10;;;;;;5093367;28;20044;-82
2022/09/01 11:45:31;;;;;;;0.20;0.20;;;23.20;90.70;;;;;;5084757;28;20043;-81
2022/09/01 11:48:12;;;;;;;0.20;0.20;;;23.40;91.80;;;;;;5082689;28;20086;-82
2022/09/01 11:50:40;;;;;;;0.22;0.22;;;23.70;82.70;;;;;;5066547;28;20489;-81
2022/09/01 11:53:12;;;;;;;0.10;0.10;;;;;;;;;;5089611;28;20050;-81
2022/09/01 11:55:43;;;;;;;0.40;0.40;;;;;;;;;;5085162;28;20098;-80
2022/09/01 11:58:29;;;;;;;0.38;0.38;;;;;;;;;;5084828;28;20040;-81
2022/09/01 12:00:56;;;;;;;;;;;24.50;83.50;;;;;;5063761;28;20032;-79
2022/09/01 12:03:28;;;;;;;0.30;0.30;;;24.70;78.50;;;;;;5090285;28;19916;-81
2022/09/01 12:06:06;;;;;;;0.20;0.20;;;24.60;69.50;;;;;;5091591;28;20065;-82
2022/09/01 12:08:36;;;;;;;0.22;0.22;;;24.60;76.00;;;;;;5090485;28;20040;-80
2022/09/01 12:11:05;;;;;;;0.17;0.17;;;24.70;75.20;;;;;;5095631;28;20047;-80
2022/09/01 12:13:31;;;;;;;0.13;0.13;;;24.90;83.90;;;;;;5097983;28;20496;-81
2022/09/01 12:16:03;;;;;;;0.30;0.30;;;25.10;74.30;;;;;;5087183;28;20068;-81
2022/09/01 12:18:45;;;;;;;0.30;0.30;;;25.30;72.70;;;;;;5090023;28;20040;-80
2022/09/01 12:21:27;;;;;;;0.22;0.20;;;25.50;74.70;;;;;;5111043;28;20452;-81
2022/09/01 12:24:08;;;;;;;0.28;0.28;;;25.50;79.10;;;;;;5098036;28;20098;-81
2022/09/01 12:26:34;;;;;;;0.20;0.20;;;25.50;67.10;;;;;;5097439;28;20042;-81
2022/09/01 12:28:59;;;;;;;0.20;0.20;;;25.50;70.70;;;;;;5056284;28;20033;-81
2022/09/01 12:31:25;;;;;;;0.47;0.47;;;25.50;73.10;;;;;;5062675;28;20557;-80
2022/09/01 12:33:54;;;;;;;0.45;0.45;;;25.60;70.10;;;;;;5065414;28;20085;-81
2022/09/01 12:36:22;;;;;;;0.20;0.20;;;25.70;67.70;;;;;;5067847;28;20505;-80
2022/09/01 12:38:50;;;;;;;0.20;0.20;;;26.00;72.60;;;;;;5087774;28;20041;-80
2022/09/01 12:41:42;;;;;;;0.20;0.20;;;26.20;68.40;;;;;;5072809;28;20507;-79
2022/09/01 12:44:41;;;;;;;0.22;0.22;;;26.40;66.40;;;;;;5082202;28;20408;-80
2022/09/01 12:47:12;;;;;;;0.10;0.10;;;26.30;66.50;;;;;;5064924;28;20400;-81
2022/09/01 12:49:47;;;;;;;0.57;0.57;;;26.50;66.80;;;;;;5088215;28;20034;-80
2022/09/01 12:52:24;;;;;;;0.10;0.10;;;26.70;64.10;;;;;;5071778;28;20446;-80
2022/09/01 12:55:03;;;;;;;0.15;0.15;;;26.70;64.20;;;;;;5086903;28;20210;-79
2022/09/01 12:57:38;;;;;;;0.28;0.28;;;26.70;62.90;;;;;;5086562;28;20051;-80
2022/09/01 13:00:10;;;;;;;0.20;0.20;;;27.00;69.80;;;;;;5054454;28;20044;-80
2022/09/01 13:02:40;;;;;;;0.10;0.10;;;27.20;68.20;;;;;;5074957;28;20078;-80
2022/09/01 13:05:29;;;;;;;0.10;0.10;;;27.30;68.00;;;;;;5096581;28;20067;-80
2022/09/01 13:07:57;;;;;;;0.13;0.13;;;27.30;64.50;;;;;;5094468;28;20054;-80
2022/09/01 13:10:27;;;;;;;0.30;0.30;;;27.40;59.40;;;;;;5072542;28;20080;-80
2022/09/01 13:12:54;;;;;;;0.10;0.10;;;27.20;58.40;;;;;;5063471;28;20036;-80
2022/09/01 13:15:20;;;;;;;0.28;0.28;;;26.90;66.20;;;;;;5049979;28;20048;-79